createdAt,value
2022-10-30T00:01:14.005Z,65.48
2022-10-30T00:11:19.282Z,65.65
2022-10-30T00:21:24.828Z,65.66
2022-10-30T00:31:30.404Z,65.80
2022-10-30T00:41:35.681Z,65.75
2022-10-30T00:53:01.266Z,65.84
2022-10-30T01:03:06.132Z,65.79
2022-10-30T01:13:11.534Z,65.78
2022-10-30T01:23:17.011Z,65.88
2022-10-30T01:33:22.405Z,65.79
2022-10-30T01:43:27.542Z,66.02
2022-10-30T01:53:32.927Z,65.94
2022-10-30T02:03:38.292Z,66.00
2022-10-30T02:13:43.866Z,65.99
2022-10-30T02:23:49.778Z,66.03
2022-10-30T02:33:55.252Z,65.98
2022-10-30T02:44:00.840Z,65.82
2022-10-30T02:54:06.716Z,65.92
2022-10-30T03:04:11.756Z,66.00
2022-10-30T03:14:16.718Z,65.90
2022-10-30T03:24:21.948Z,66.05
2022-10-30T03:34:27.323Z,66.15
2022-10-30T03:44:32.502Z,66.11
2022-10-30T03:54:37.595Z,66.38
2022-10-30T04:04:43.106Z,66.14
2022-10-30T04:14:48.988Z,66.26
2022-10-30T04:24:54.346Z,66.15
2022-10-30T04:34:59.847Z,66.26
2022-10-30T04:45:05.258Z,66.25
2022-10-30T04:55:10.793Z,66.21
2022-10-30T05:05:16.059Z,66.19
2022-10-30T05:15:21.441Z,66.27
2022-10-30T05:25:26.388Z,65.78
2022-10-30T05:35:31.553Z,65.62
2022-10-30T05:45:36.859Z,65.65
2022-10-30T05:55:42.364Z,65.66
2022-10-30T06:05:47.571Z,65.78
2022-10-30T06:15:52.983Z,65.87
2022-10-30T06:25:58.058Z,66.00
2022-10-30T06:36:05.105Z,66.06
2022-10-30T06:46:10.311Z,65.91
2022-10-30T06:56:15.641Z,66.28
2022-10-30T07:06:20.891Z,66.75
2022-10-30T07:16:26.054Z,66.31
2022-10-30T07:26:31.510Z,66.34
2022-10-30T07:36:37.302Z,66.87
2022-10-30T07:46:42.350Z,66.74
2022-10-30T07:56:47.383Z,66.96
2022-10-30T08:06:52.471Z,66.88
2022-10-30T08:16:57.661Z,66.72
2022-10-30T08:27:02.860Z,66.76
2022-10-30T08:38:27.630Z,66.72
2022-10-30T08:48:31.579Z,66.82
2022-10-30T08:58:36.476Z,66.90
2022-10-30T09:08:41.859Z,66.86
2022-10-30T09:18:47.020Z,66.96
2022-10-30T09:30:11.601Z,66.96
2022-10-30T09:40:15.949Z,66.55
2022-10-30T09:50:21.120Z,66.89
2022-10-30T10:00:26.232Z,67.12
2022-10-30T10:10:31.386Z,66.97
2022-10-30T10:20:36.654Z,66.86
2022-10-30T10:30:41.767Z,67.02
2022-10-30T10:40:47.320Z,67.02
2022-10-30T10:50:52.669Z,66.86
2022-10-30T11:02:17.820Z,66.91
2022-10-30T11:12:22.930Z,66.82
2022-10-30T11:22:28.158Z,67.05
2022-10-30T11:32:33.797Z,66.67
2022-10-30T11:42:39.409Z,66.43
2022-10-30T11:52:44.515Z,66.41
2022-10-30T12:02:49.663Z,66.30
2022-10-30T12:12:55.200Z,65.77
2022-10-30T12:23:00.975Z,65.73
2022-10-30T12:33:06.512Z,65.74
2022-10-30T12:43:11.808Z,66.33
2022-10-30T12:53:17.091Z,66.55
2022-10-30T13:03:22.340Z,66.73
2022-10-30T13:13:27.955Z,67.14
2022-10-30T13:23:33.022Z,66.37
2022-10-30T13:33:38.634Z,66.65
2022-10-30T13:43:44.057Z,66.90
2022-10-30T13:53:49.378Z,67.12
2022-10-30T14:03:54.601Z,66.94
2022-10-30T14:14:00.166Z,67.03
2022-10-30T14:24:05.259Z,67.31
2022-10-30T14:34:10.699Z,67.15
2022-10-30T14:44:16.160Z,67.06
2022-10-30T14:54:21.317Z,67.13
2022-10-30T15:04:26.756Z,67.00
2022-10-30T15:14:48.691Z,67.14
2022-10-30T15:24:42.642Z,66.87
2022-10-30T15:34:47.878Z,66.74
2022-10-30T15:44:53.266Z,66.82
2022-10-30T15:54:58.401Z,66.75
2022-10-30T16:05:03.689Z,66.66
2022-10-30T16:16:28.448Z,66.42
2022-10-30T16:26:32.625Z,66.61
2022-10-30T16:36:38.110Z,66.42
2022-10-30T16:48:08.429Z,65.95
2022-10-30T16:58:12.271Z,66.65
2022-10-30T17:08:17.282Z,66.91
2022-10-30T17:18:22.541Z,67.03
2022-10-30T17:28:27.963Z,67.40
2022-10-30T17:38:33.236Z,67.66
2022-10-30T17:48:38.498Z,67.80
2022-10-30T17:58:44.061Z,68.32
2022-10-30T18:08:50.933Z,67.13
2022-10-30T18:18:56.569Z,67.56
2022-10-30T18:29:01.867Z,69.53
2022-10-30T18:39:06.892Z,68.87
2022-10-30T18:49:12.385Z,68.50
2022-10-30T18:59:17.707Z,68.46
2022-10-30T19:09:22.753Z,68.16
2022-10-30T19:21:05.126Z,65.03
2022-10-30T19:32:16.384Z,66.39
2022-10-30T19:46:18.808Z,67.44
2022-10-30T19:56:22.612Z,66.86
2022-10-30T20:06:27.656Z,66.73
2022-10-30T20:16:33.212Z,67.17
2022-10-30T20:26:38.546Z,67.09
2022-10-30T20:38:03.372Z,67.02
2022-10-30T20:49:27.421Z,67.02
2022-10-30T20:59:32.003Z,67.04
2022-10-30T21:09:37.324Z,66.79
2022-10-30T21:19:42.298Z,67.52
2022-10-30T21:29:47.567Z,66.27
2022-10-30T21:39:52.814Z,65.79
2022-10-30T21:49:57.734Z,65.80
2022-10-30T22:00:05.812Z,65.71
2022-10-30T22:10:12.757Z,65.80
2022-10-30T22:20:17.832Z,65.93
2022-10-30T22:30:22.554Z,66.00
2022-10-30T22:40:28.471Z,66.05
2022-10-30T22:50:34.261Z,66.11
2022-10-30T23:00:39.619Z,66.07
2022-10-30T23:10:45.170Z,65.91
2022-10-30T23:20:50.557Z,65.96
2022-10-30T23:30:55.695Z,66.10
2022-10-30T23:42:20.615Z,66.27
2022-10-30T23:52:24.912Z,66.31
